sensor_id;sensor_type;location;lat;lon;timestamp;temperature;humidity
15617;DHT22;7908;51.688;7.130;2023-01-28T00:00:13;2.40;99.90
15617;DHT22;7908;51.688;7.130;2023-01-28T00:02:47;2.40;99.90
15617;DHT22;7908;51.688;7.130;2023-01-28T00:05:16;2.40;99.90
15617;DHT22;7908;51.688;7.130;2023-01-28T00:07:48;2.40;99.90
15617;DHT22;7908;51.688;7.130;2023-01-28T00:10:18;2.40;99.90
15617;DHT22;7908;51.688;7.130;2023-01-28T00:12:47;2.40;99.90
15617;DHT22;7908;51.688;7.130;2023-01-28T00:15:17;2.40;99.90
15617;DHT22;7908;51.688;7.130;2023-01-28T00:17:47;2.40;99.90
15617;DHT22;7908;51.688;7.130;2023-01-28T00:20:16;2.40;99.90
15617;DHT22;7908;51.688;7.130;2023-01-28T00:22:46;2.40;99.90
15617;DHT22;7908;51.688;7.130;2023-01-28T00:25:18;2.40;99.90
15617;DHT22;7908;51.688;7.130;2023-01-28T00:27:48;2.40;99.90
15617;DHT22;7908;51.688;7.130;2023-01-28T00:30:17;2.40;99.90
15617;DHT22;7908;51.688;7.130;2023-01-28T00:32:48;2.40;99.90
15617;DHT22;7908;51.688;7.130;2023-01-28T00:35:17;2.40;99.90
15617;DHT22;7908;51.688;7.130;2023-01-28T00:37:46;2.30;99.90
15617;DHT22;7908;51.688;7.130;2023-01-28T00:40:15;2.40;99.90
15617;DHT22;7908;51.688;7.130;2023-01-28T00:42:44;2.40;99.90
15617;DHT22;7908;51.688;7.130;2023-01-28T00:45:12;2.30;99.90
15617;DHT22;7908;51.688;7.130;2023-01-28T00:47:41;2.30;99.90
15617;DHT22;7908;51.688;7.130;2023-01-28T00:50:22;2.30;99.90
15617;DHT22;7908;51.688;7.130;2023-01-28T00:52:51;2.30;99.90
15617;DHT22;7908;51.688;7.130;2023-01-28T00:55:20;2.30;99.90
15617;DHT22;7908;51.688;7.130;2023-01-28T00:57:49;2.30;99.90
15617;DHT22;7908;51.688;7.130;2023-01-28T01:00:18;2.30;99.90
15617;DHT22;7908;51.688;7.130;2023-01-28T01:02:52;2.30;99.90
15617;DHT22;7908;51.688;7.130;2023-01-28T01:05:22;2.30;99.90
15617;DHT22;7908;51.688;7.130;2023-01-28T01:07:51;2.30;99.90
15617;DHT22;7908;51.688;7.130;2023-01-28T01:10:20;2.40;99.90
15617;DHT22;7908;51.688;7.130;2023-01-28T01:12:49;2.40;99.90
15617;DHT22;7908;51.688;7.130;2023-01-28T01:15:18;2.40;99.90
15617;DHT22;7908;51.688;7.130;2023-01-28T01:17:48;2.40;99.90
15617;DHT22;7908;51.688;7.130;2023-01-28T01:20:19;2.40;99.90
15617;DHT22;7908;51.688;7.130;2023-01-28T01:22:49;2.30;99.90
15617;DHT22;7908;51.688;7.130;2023-01-28T01:25:18;2.30;99.90
15617;DHT22;7908;51.688;7.130;2023-01-28T01:27:48;2.30;99.90
15617;DHT22;7908;51.688;7.130;2023-01-28T01:30:17;2.30;99.90
15617;DHT22;7908;51.688;7.130;2023-01-28T01:32:46;2.30;99.90
15617;DHT22;7908;51.688;7.130;2023-01-28T01:35:16;2.30;99.90
15617;DHT22;7908;51.688;7.130;2023-01-28T01:37:44;2.30;99.90
15617;DHT22;7908;51.688;7.130;2023-01-28T01:40:15;2.30;99.90
15617;DHT22;7908;51.688;7.130;2023-01-28T01:42:43;2.40;99.90
15617;DHT22;7908;51.688;7.130;2023-01-28T01:45:13;2.40;99.90
15617;DHT22;7908;51.688;7.130;2023-01-28T01:47:46;2.40;99.90
15617;DHT22;7908;51.688;7.130;2023-01-28T01:50:22;2.40;99.90
15617;DHT22;7908;51.688;7.130;2023-01-28T01:52:56;2.40;99.90
15617;DHT22;7908;51.688;7.130;2023-01-28T01:55:30;2.40;99.90
15617;DHT22;7908;51.688;7.130;2023-01-28T01:58:07;2.40;99.90
15617;DHT22;7908;51.688;7.130;2023-01-28T02:00:37;2.40;99.90
15617;DHT22;7908;51.688;7.130;2023-01-28T02:03:08;2.30;99.90
15617;DHT22;7908;51.688;7.130;2023-01-28T02:05:37;2.30;99.90
15617;DHT22;7908;51.688;7.130;2023-01-28T02:08:06;2.30;99.90
15617;DHT22;7908;51.688;7.130;2023-01-28T02:10:55;2.20;99.90
15617;DHT22;7908;51.688;7.130;2023-01-28T02:13:29;2.20;99.90
15617;DHT22;7908;51.688;7.130;2023-01-28T02:16:00;2.20;99.90
15617;DHT22;7908;51.688;7.130;2023-01-28T02:18:31;2.20;99.90
15617;DHT22;7908;51.688;7.130;2023-01-28T02:24:18;2.20;99.90
15617;DHT22;7908;51.688;7.130;2023-01-28T02:27:03;2.20;99.90
15617;DHT22;7908;51.688;7.130;2023-01-28T02:29:42;2.10;99.90
15617;DHT22;7908;51.688;7.130;2023-01-28T02:32:16;2.10;99.90
15617;DHT22;7908;51.688;7.130;2023-01-28T02:34:51;2.10;99.90
15617;DHT22;7908;51.688;7.130;2023-01-28T02:37:26;2.10;99.90
15617;DHT22;7908;51.688;7.130;2023-01-28T02:40:00;2.10;99.90
15617;DHT22;7908;51.688;7.130;2023-01-28T02:42:31;2.10;99.90
15617;DHT22;7908;51.688;7.130;2023-01-28T02:45:05;2.10;99.90
15617;DHT22;7908;51.688;7.130;2023-01-28T02:47:34;2.10;99.90
15617;DHT22;7908;51.688;7.130;2023-01-28T02:50:21;2.10;99.90
15617;DHT22;7908;51.688;7.130;2023-01-28T02:52:58;2.00;99.90
15617;DHT22;7908;51.688;7.130;2023-01-28T02:55:51;2.00;99.90
15617;DHT22;7908;51.688;7.130;2023-01-28T02:58:28;2.00;99.90
15617;DHT22;7908;51.688;7.130;2023-01-28T03:01:04;2.00;99.90
15617;DHT22;7908;51.688;7.130;2023-01-28T03:03:41;2.00;99.90
15617;DHT22;7908;51.688;7.130;2023-01-28T03:06:15;2.00;99.90
15617;DHT22;7908;51.688;7.130;2023-01-28T03:08:49;2.00;99.90
15617;DHT22;7908;51.688;7.130;2023-01-28T03:11:40;2.00;99.90
15617;DHT22;7908;51.688;7.130;2023-01-28T03:14:30;2.00;99.90
15617;DHT22;7908;51.688;7.130;2023-01-28T03:17:22;2.00;99.90
15617;DHT22;7908;51.688;7.130;2023-01-28T03:20:11;1.90;99.90
15617;DHT22;7908;51.688;7.130;2023-01-28T03:23:02;2.00;99.90
15617;DHT22;7908;51.688;7.130;2023-01-28T03:25:53;2.00;99.90
15617;DHT22;7908;51.688;7.130;2023-01-28T03:28:45;2.00;99.90
15617;DHT22;7908;51.688;7.130;2023-01-28T03:31:33;2.00;99.90
15617;DHT22;7908;51.688;7.130;2023-01-28T03:34:22;2.00;99.90
15617;DHT22;7908;51.688;7.130;2023-01-28T03:37:08;2.00;99.90
15617;DHT22;7908;51.688;7.130;2023-01-28T03:39:40;2.00;99.90
15617;DHT22;7908;51.688;7.130;2023-01-28T03:42:13;1.90;99.90
15617;DHT22;7908;51.688;7.130;2023-01-28T03:44:44;1.90;99.90
15617;DHT22;7908;51.688;7.130;2023-01-28T03:47:20;1.90;99.90
15617;DHT22;7908;51.688;7.130;2023-01-28T03:49:53;1.80;99.90
15617;DHT22;7908;51.688;7.130;2023-01-28T03:52:24;1.90;99.90
15617;DHT22;7908;51.688;7.130;2023-01-28T03:54:53;1.80;99.90
15617;DHT22;7908;51.688;7.130;2023-01-28T03:57:26;0.70;99.90
15617;DHT22;7908;51.688;7.130;2023-01-28T03:59:57;1.50;99.90
15617;DHT22;7908;51.688;7.130;2023-01-28T04:02:30;1.80;99.90
15617;DHT22;7908;51.688;7.130;2023-01-28T04:05:09;1.80;99.90
15617;DHT22;7908;51.688;7.130;2023-01-28T04:07:53;2.90;99.90
15617;DHT22;7908;51.688;7.130;2023-01-28T04:10:22;1.80;99.90
15617;DHT22;7908;51.688;7.130;2023-01-28T04:12:51;1.80;99.90
15617;DHT22;7908;51.688;7.130;2023-01-28T04:15:41;1.80;99.90
15617;DHT22;7908;51.688;7.130;2023-01-28T04:18:40;3.50;99.90
15617;DHT22;7908;51.688;7.130;2023-01-28T04:21:34;1.70;99.90
15617;DHT22;7908;51.688;7.130;2023-01-28T04:24:30;1.70;99.90
15617;DHT22;7908;51.688;7.130;2023-01-28T04:26:58;1.80;99.90
15617;DHT22;7908;51.688;7.130;2023-01-28T04:29:28;1.80;99.90
15617;DHT22;7908;51.688;7.130;2023-01-28T04:31:57;1.80;99.90
15617;DHT22;7908;51.688;7.130;2023-01-28T04:34:26;1.80;99.90
15617;DHT22;7908;51.688;7.130;2023-01-28T04:36:56;1.80;99.90
15617;DHT22;7908;51.688;7.130;2023-01-28T04:39:24;1.80;99.90
15617;DHT22;7908;51.688;7.130;2023-01-28T04:41:53;1.70;99.90
15617;DHT22;7908;51.688;7.130;2023-01-28T04:44:21;1.70;99.90
15617;DHT22;7908;51.688;7.130;2023-01-28T04:46:50;1.70;99.90
15617;DHT22;7908;51.688;7.130;2023-01-28T04:49:19;1.70;99.90
15617;DHT22;7908;51.688;7.130;2023-01-28T04:51:47;1.70;99.90
15617;DHT22;7908;51.688;7.130;2023-01-28T04:54:17;1.70;99.90
15617;DHT22;7908;51.688;7.130;2023-01-28T04:56:46;1.70;99.90
15617;DHT22;7908;51.688;7.130;2023-01-28T04:59:15;1.70;99.90
15617;DHT22;7908;51.688;7.130;2023-01-28T05:01:44;1.70;99.90
15617;DHT22;7908;51.688;7.130;2023-01-28T05:04:13;1.70;99.90
15617;DHT22;7908;51.688;7.130;2023-01-28T05:06:43;1.70;99.90
15617;DHT22;7908;51.688;7.130;2023-01-28T05:09:12;1.70;99.90
15617;DHT22;7908;51.688;7.130;2023-01-28T05:11:42;1.70;99.90
15617;DHT22;7908;51.688;7.130;2023-01-28T05:14:11;1.70;99.90
15617;DHT22;7908;51.688;7.130;2023-01-28T05:16:40;1.70;99.90
15617;DHT22;7908;51.688;7.130;2023-01-28T05:19:08;1.70;99.90
15617;DHT22;7908;51.688;7.130;2023-01-28T05:21:37;1.70;99.90
15617;DHT22;7908;51.688;7.130;2023-01-28T05:24:06;1.60;99.90
15617;DHT22;7908;51.688;7.130;2023-01-28T05:26:35;1.70;99.90
15617;DHT22;7908;51.688;7.130;2023-01-28T05:29:05;1.60;99.90
15617;DHT22;7908;51.688;7.130;2023-01-28T05:31:34;1.60;99.90
15617;DHT22;7908;51.688;7.130;2023-01-28T05:34:11;1.60;99.90
15617;DHT22;7908;51.688;7.130;2023-01-28T05:36:40;1.60;99.90
15617;DHT22;7908;51.688;7.130;2023-01-28T05:39:08;1.60;99.90
15617;DHT22;7908;51.688;7.130;2023-01-28T05:41:37;1.50;99.90
15617;DHT22;7908;51.688;7.130;2023-01-28T05:44:07;1.60;99.90
15617;DHT22;7908;51.688;7.130;2023-01-28T05:46:36;1.60;99.90
15617;DHT22;7908;51.688;7.130;2023-01-28T05:49:04;1.60;99.90
15617;DHT22;7908;51.688;7.130;2023-01-28T05:51:38;1.60;99.90
15617;DHT22;7908;51.688;7.130;2023-01-28T05:54:07;1.50;99.90
15617;DHT22;7908;51.688;7.130;2023-01-28T05:56:36;1.50;99.90
15617;DHT22;7908;51.688;7.130;2023-01-28T05:59:10;1.50;99.90
15617;DHT22;7908;51.688;7.130;2023-01-28T06:01:39;1.50;99.90
15617;DHT22;7908;51.688;7.130;2023-01-28T06:04:08;1.40;99.90
15617;DHT22;7908;51.688;7.130;2023-01-28T06:06:36;1.40;99.90
15617;DHT22;7908;51.688;7.130;2023-01-28T06:09:05;1.40;99.90
15617;DHT22;7908;51.688;7.130;2023-01-28T06:11:33;1.40;99.90
15617;DHT22;7908;51.688;7.130;2023-01-28T06:14:02;1.40;99.90
15617;DHT22;7908;51.688;7.130;2023-01-28T06:16:32;1.40;99.90
15617;DHT22;7908;51.688;7.130;2023-01-28T06:19:01;1.40;99.90
15617;DHT22;7908;51.688;7.130;2023-01-28T06:21:30;1.40;99.90
15617;DHT22;7908;51.688;7.130;2023-01-28T06:23:59;1.30;99.90
15617;DHT22;7908;51.688;7.130;2023-01-28T06:26:27;1.30;99.90
15617;DHT22;7908;51.688;7.130;2023-01-28T06:28:56;1.30;99.90
15617;DHT22;7908;51.688;7.130;2023-01-28T06:31:24;1.30;99.90
15617;DHT22;7908;51.688;7.130;2023-01-28T06:33:54;1.30;99.90
15617;DHT22;7908;51.688;7.130;2023-01-28T06:36:23;1.30;99.90
15617;DHT22;7908;51.688;7.130;2023-01-28T06:38:52;1.30;99.90
15617;DHT22;7908;51.688;7.130;2023-01-28T06:41:20;1.30;99.90
15617;DHT22;7908;51.688;7.130;2023-01-28T06:43:49;1.30;99.90
15617;DHT22;7908;51.688;7.130;2023-01-28T06:46:18;1.30;99.90
15617;DHT22;7908;51.688;7.130;2023-01-28T06:48:47;1.30;99.90
15617;DHT22;7908;51.688;7.130;2023-01-28T06:51:17;1.30;99.90
15617;DHT22;7908;51.688;7.130;2023-01-28T06:53:45;1.20;99.90
15617;DHT22;7908;51.688;7.130;2023-01-28T06:56:14;1.20;99.90
15617;DHT22;7908;51.688;7.130;2023-01-28T06:58:43;1.20;99.90
15617;DHT22;7908;51.688;7.130;2023-01-28T07:01:11;1.20;99.90
15617;DHT22;7908;51.688;7.130;2023-01-28T07:03:40;1.20;99.90
15617;DHT22;7908;51.688;7.130;2023-01-28T07:06:09;1.20;99.90
15617;DHT22;7908;51.688;7.130;2023-01-28T07:08:39;1.20;99.90
15617;DHT22;7908;51.688;7.130;2023-01-28T07:11:07;1.20;99.90
15617;DHT22;7908;51.688;7.130;2023-01-28T07:13:36;1.20;99.90
15617;DHT22;7908;51.688;7.130;2023-01-28T07:16:05;1.20;99.90
15617;DHT22;7908;51.688;7.130;2023-01-28T07:18:34;1.20;99.90
15617;DHT22;7908;51.688;7.130;2023-01-28T07:21:03;1.20;99.90
15617;DHT22;7908;51.688;7.130;2023-01-28T07:23:32;1.10;99.90
15617;DHT22;7908;51.688;7.130;2023-01-28T07:26:03;1.10;99.90
15617;DHT22;7908;51.688;7.130;2023-01-28T07:28:32;1.10;99.90
15617;DHT22;7908;51.688;7.130;2023-01-28T07:31:00;1.10;99.90
15617;DHT22;7908;51.688;7.130;2023-01-28T07:33:29;1.10;99.90
15617;DHT22;7908;51.688;7.130;2023-01-28T07:35:58;1.10;99.90
15617;DHT22;7908;51.688;7.130;2023-01-28T07:38:26;1.10;99.90
15617;DHT22;7908;51.688;7.130;2023-01-28T07:40:55;1.10;99.90
15617;DHT22;7908;51.688;7.130;2023-01-28T07:43:25;1.10;99.90
15617;DHT22;7908;51.688;7.130;2023-01-28T07:45:54;1.10;99.90
15617;DHT22;7908;51.688;7.130;2023-01-28T07:48:22;1.10;99.90
15617;DHT22;7908;51.688;7.130;2023-01-28T07:50:51;1.10;99.90
15617;DHT22;7908;51.688;7.130;2023-01-28T07:53:20;1.20;99.90
15617;DHT22;7908;51.688;7.130;2023-01-28T07:55:48;1.20;99.90
15617;DHT22;7908;51.688;7.130;2023-01-28T07:58:17;1.20;99.90
15617;DHT22;7908;51.688;7.130;2023-01-28T08:00:47;1.30;99.90
15617;DHT22;7908;51.688;7.130;2023-01-28T08:03:16;1.30;99.90
15617;DHT22;7908;51.688;7.130;2023-01-28T08:05:46;1.40;99.90
15617;DHT22;7908;51.688;7.130;2023-01-28T08:08:16;1.50;99.90
15617;DHT22;7908;51.688;7.130;2023-01-28T08:10:45;1.50;99.90
15617;DHT22;7908;51.688;7.130;2023-01-28T08:13:15;1.40;99.90
15617;DHT22;7908;51.688;7.130;2023-01-28T08:15:44;1.40;99.90
15617;DHT22;7908;51.688;7.130;2023-01-28T08:18:15;1.40;99.90
15617;DHT22;7908;51.688;7.130;2023-01-28T08:20:44;1.40;99.90
15617;DHT22;7908;51.688;7.130;2023-01-28T08:23:15;1.40;99.90
15617;DHT22;7908;51.688;7.130;2023-01-28T08:25:44;1.50;99.90
15617;DHT22;7908;51.688;7.130;2023-01-28T08:28:14;1.50;99.90
15617;DHT22;7908;51.688;7.130;2023-01-28T08:30:43;1.30;99.90
15617;DHT22;7908;51.688;7.130;2023-01-28T08:33:14;1.50;99.90
15617;DHT22;7908;51.688;7.130;2023-01-28T08:35:43;1.50;99.90
15617;DHT22;7908;51.688;7.130;2023-01-28T08:38:12;1.60;99.90
15617;DHT22;7908;51.688;7.130;2023-01-28T08:40:44;1.50;99.90
15617;DHT22;7908;51.688;7.130;2023-01-28T08:43:12;1.50;99.90
15617;DHT22;7908;51.688;7.130;2023-01-28T08:45:41;1.50;99.90
15617;DHT22;7908;51.688;7.130;2023-01-28T08:48:11;1.50;99.90
15617;DHT22;7908;51.688;7.130;2023-01-28T08:50:44;1.40;99.90
15617;DHT22;7908;51.688;7.130;2023-01-28T08:53:15;1.50;99.90
15617;DHT22;7908;51.688;7.130;2023-01-28T08:55:44;1.50;99.90
15617;DHT22;7908;51.688;7.130;2023-01-28T08:58:14;1.50;99.90
15617;DHT22;7908;51.688;7.130;2023-01-28T09:00:44;1.50;99.90
15617;DHT22;7908;51.688;7.130;2023-01-28T09:03:13;1.50;99.90
15617;DHT22;7908;51.688;7.130;2023-01-28T09:05:44;1.50;99.90
15617;DHT22;7908;51.688;7.130;2023-01-28T09:08:14;1.50;99.90
15617;DHT22;7908;51.688;7.130;2023-01-28T09:10:42;1.60;99.90
15617;DHT22;7908;51.688;7.130;2023-01-28T09:13:13;1.60;99.90
15617;DHT22;7908;51.688;7.130;2023-01-28T09:15:42;1.70;99.90
15617;DHT22;7908;51.688;7.130;2023-01-28T09:18:11;1.70;99.90
15617;DHT22;7908;51.688;7.130;2023-01-28T09:20:40;1.70;99.90
15617;DHT22;7908;51.688;7.130;2023-01-28T09:23:11;1.70;99.90
15617;DHT22;7908;51.688;7.130;2023-01-28T09:25:39;1.70;99.90
15617;DHT22;7908;51.688;7.130;2023-01-28T09:28:08;1.70;99.90
15617;DHT22;7908;51.688;7.130;2023-01-28T09:30:37;1.80;99.90
15617;DHT22;7908;51.688;7.130;2023-01-28T09:33:06;1.80;99.90
15617;DHT22;7908;51.688;7.130;2023-01-28T09:35:35;1.80;99.90
15617;DHT22;7908;51.688;7.130;2023-01-28T09:38:04;1.80;99.90
15617;DHT22;7908;51.688;7.130;2023-01-28T09:40:38;1.80;99.90
15617;DHT22;7908;51.688;7.130;2023-01-28T09:43:27;1.80;99.90
15617;DHT22;7908;51.688;7.130;2023-01-28T09:46:01;1.90;99.90
15617;DHT22;7908;51.688;7.130;2023-01-28T09:48:34;1.90;99.90
15617;DHT22;7908;51.688;7.130;2023-01-28T09:51:09;1.90;99.90
15617;DHT22;7908;51.688;7.130;2023-01-28T09:53:42;1.90;99.90
15617;DHT22;7908;51.688;7.130;2023-01-28T09:56:24;1.90;99.90
15617;DHT22;7908;51.688;7.130;2023-01-28T09:58:53;1.90;99.90
15617;DHT22;7908;51.688;7.130;2023-01-28T10:01:35;1.90;99.90
15617;DHT22;7908;51.688;7.130;2023-01-28T10:04:17;1.90;99.90
15617;DHT22;7908;51.688;7.130;2023-01-28T10:06:57;2.00;99.90
15617;DHT22;7908;51.688;7.130;2023-01-28T10:09:36;2.00;99.90
15617;DHT22;7908;51.688;7.130;2023-01-28T10:12:28;2.00;99.90
15617;DHT22;7908;51.688;7.130;2023-01-28T10:15:28;2.00;99.90
15617;DHT22;7908;51.688;7.130;2023-01-28T10:18:05;2.10;99.90
15617;DHT22;7908;51.688;7.130;2023-01-28T10:20:47;2.10;99.90
15617;DHT22;7908;51.688;7.130;2023-01-28T10:23:19;2.10;99.90
15617;DHT22;7908;51.688;7.130;2023-01-28T10:25:49;2.10;99.90
15617;DHT22;7908;51.688;7.130;2023-01-28T10:28:22;2.20;99.90
15617;DHT22;7908;51.688;7.130;2023-01-28T10:30:52;2.10;99.90
15617;DHT22;7908;51.688;7.130;2023-01-28T10:33:23;2.10;99.90
15617;DHT22;7908;51.688;7.130;2023-01-28T10:35:56;2.10;99.90
15617;DHT22;7908;51.688;7.130;2023-01-28T10:38:26;2.10;99.90
15617;DHT22;7908;51.688;7.130;2023-01-28T10:40:58;2.10;99.90
15617;DHT22;7908;51.688;7.130;2023-01-28T10:43:32;2.10;99.90
15617;DHT22;7908;51.688;7.130;2023-01-28T10:46:05;2.20;99.90
15617;DHT22;7908;51.688;7.130;2023-01-28T10:48:36;2.20;99.90
15617;DHT22;7908;51.688;7.130;2023-01-28T10:51:06;2.30;99.90
15617;DHT22;7908;51.688;7.130;2023-01-28T10:53:36;2.30;99.90
15617;DHT22;7908;51.688;7.130;2023-01-28T10:56:07;2.20;99.90
15617;DHT22;7908;51.688;7.130;2023-01-28T10:58:53;2.20;99.90
15617;DHT22;7908;51.688;7.130;2023-01-28T11:01:24;2.20;99.90
15617;DHT22;7908;51.688;7.130;2023-01-28T11:03:57;2.30;99.90
15617;DHT22;7908;51.688;7.130;2023-01-28T11:06:28;2.30;99.90
15617;DHT22;7908;51.688;7.130;2023-01-28T11:08:57;2.30;99.90
15617;DHT22;7908;51.688;7.130;2023-01-28T11:11:27;2.20;99.90
15617;DHT22;7908;51.688;7.130;2023-01-28T11:13:58;2.20;99.90
15617;DHT22;7908;51.688;7.130;2023-01-28T11:16:27;2.20;99.90
15617;DHT22;7908;51.688;7.130;2023-01-28T11:19:01;2.20;99.90
15617;DHT22;7908;51.688;7.130;2023-01-28T11:21:33;2.20;99.90
15617;DHT22;7908;51.688;7.130;2023-01-28T11:24:05;2.30;99.90
15617;DHT22;7908;51.688;7.130;2023-01-28T11:26:37;2.30;99.90
15617;DHT22;7908;51.688;7.130;2023-01-28T11:29:21;2.30;99.90
15617;DHT22;7908;51.688;7.130;2023-01-28T11:31:51;2.20;99.90
15617;DHT22;7908;51.688;7.130;2023-01-28T11:34:20;2.30;99.90
15617;DHT22;7908;51.688;7.130;2023-01-28T11:36:54;2.30;99.90
15617;DHT22;7908;51.688;7.130;2023-01-28T11:39:29;2.30;99.90
15617;DHT22;7908;51.688;7.130;2023-01-28T11:42:12;2.20;99.90
15617;DHT22;7908;51.688;7.130;2023-01-28T11:44:44;2.30;99.90
15617;DHT22;7908;51.688;7.130;2023-01-28T11:47:21;2.30;99.90
15617;DHT22;7908;51.688;7.130;2023-01-28T11:52:57;2.30;99.90
15617;DHT22;7908;51.688;7.130;2023-01-28T11:55:54;2.30;99.90
15617;DHT22;7908;51.688;7.130;2023-01-28T11:58:32;2.40;99.90
15617;DHT22;7908;51.688;7.130;2023-01-28T12:01:11;2.40;99.90
15617;DHT22;7908;51.688;7.130;2023-01-28T12:04:07;2.50;99.90
15617;DHT22;7908;51.688;7.130;2023-01-28T12:06:53;2.50;99.90
15617;DHT22;7908;51.688;7.130;2023-01-28T12:09:34;2.50;99.90
15617;DHT22;7908;51.688;7.130;2023-01-28T12:12:26;2.50;99.90
15617;DHT22;7908;51.688;7.130;2023-01-28T12:18:17;2.40;99.90
15617;DHT22;7908;51.688;7.130;2023-01-28T12:21:00;2.40;99.90
15617;DHT22;7908;51.688;7.130;2023-01-28T12:23:45;2.50;99.90
15617;DHT22;7908;51.688;7.130;2023-01-28T12:26:22;2.50;99.90
15617;DHT22;7908;51.688;7.130;2023-01-28T12:29:10;2.50;99.90
15617;DHT22;7908;51.688;7.130;2023-01-28T12:32:00;2.50;99.90
15617;DHT22;7908;51.688;7.130;2023-01-28T12:34:47;2.50;99.90
15617;DHT22;7908;51.688;7.130;2023-01-28T12:37:24;2.50;99.90
15617;DHT22;7908;51.688;7.130;2023-01-28T12:40:05;2.40;99.90
15617;DHT22;7908;51.688;7.130;2023-01-28T12:42:40;2.20;99.90
15617;DHT22;7908;51.688;7.130;2023-01-28T12:45:15;2.10;99.90
15617;DHT22;7908;51.688;7.130;2023-01-28T12:47:52;2.00;99.90
15617;DHT22;7908;51.688;7.130;2023-01-28T12:50:26;1.90;99.90
15617;DHT22;7908;51.688;7.130;2023-01-28T12:52:59;1.90;99.90
15617;DHT22;7908;51.688;7.130;2023-01-28T12:55:38;1.90;99.90
15617;DHT22;7908;51.688;7.130;2023-01-28T12:58:14;2.00;99.90
15617;DHT22;7908;51.688;7.130;2023-01-28T13:00:48;2.10;99.90
15617;DHT22;7908;51.688;7.130;2023-01-28T13:03:23;2.30;99.90
15617;DHT22;7908;51.688;7.130;2023-01-28T13:05:59;2.30;99.90
15617;DHT22;7908;51.688;7.130;2023-01-28T13:08:30;2.40;99.90
15617;DHT22;7908;51.688;7.130;2023-01-28T13:11:03;2.40;99.90
15617;DHT22;7908;51.688;7.130;2023-01-28T13:13:36;2.40;99.90
15617;DHT22;7908;51.688;7.130;2023-01-28T13:16:08;2.20;99.90
15617;DHT22;7908;51.688;7.130;2023-01-28T13:18:49;2.10;99.90
15617;DHT22;7908;51.688;7.130;2023-01-28T13:21:33;1.90;99.90
15617;DHT22;7908;51.688;7.130;2023-01-28T13:24:30;1.90;99.90
15617;DHT22;7908;51.688;7.130;2023-01-28T13:27:10;1.80;99.90
15617;DHT22;7908;51.688;7.130;2023-01-28T13:29:40;1.80;99.90
15617;DHT22;7908;51.688;7.130;2023-01-28T13:32:28;1.70;99.90
15617;DHT22;7908;51.688;7.130;2023-01-28T13:35:00;1.70;99.90
15617;DHT22;7908;51.688;7.130;2023-01-28T13:37:33;1.70;99.90
15617;DHT22;7908;51.688;7.130;2023-01-28T13:40:20;1.70;99.90
15617;DHT22;7908;51.688;7.130;2023-01-28T13:42:59;1.70;99.90
15617;DHT22;7908;51.688;7.130;2023-01-28T13:45:29;1.70;99.90
15617;DHT22;7908;51.688;7.130;2023-01-28T13:48:06;1.60;99.90
15617;DHT22;7908;51.688;7.130;2023-01-28T13:50:42;1.60;99.90
15617;DHT22;7908;51.688;7.130;2023-01-28T13:53:32;1.60;99.90
15617;DHT22;7908;51.688;7.130;2023-01-28T13:56:06;1.70;99.90
15617;DHT22;7908;51.688;7.130;2023-01-28T13:59:12;1.70;99.90
15617;DHT22;7908;51.688;7.130;2023-01-28T14:05:37;1.70;99.90
15617;DHT22;7908;51.688;7.130;2023-01-28T14:15:06;1.60;99.90
15617;DHT22;7908;51.688;7.130;2023-01-28T14:17:43;1.50;99.90
15617;DHT22;7908;51.688;7.130;2023-01-28T14:20:17;1.50;99.90
15617;DHT22;7908;51.688;7.130;2023-01-28T14:22:47;1.60;99.90
15617;DHT22;7908;51.688;7.130;2023-01-28T14:25:23;1.50;99.90
15617;DHT22;7908;51.688;7.130;2023-01-28T14:27:58;1.50;99.90
15617;DHT22;7908;51.688;7.130;2023-01-28T14:30:34;1.60;99.90
15617;DHT22;7908;51.688;7.130;2023-01-28T14:33:09;1.60;99.90
15617;DHT22;7908;51.688;7.130;2023-01-28T14:35:44;1.60;99.90
15617;DHT22;7908;51.688;7.130;2023-01-28T14:38:15;1.60;99.90
15617;DHT22;7908;51.688;7.130;2023-01-28T14:40:49;1.50;99.90
15617;DHT22;7908;51.688;7.130;2023-01-28T14:43:24;1.50;99.90
15617;DHT22;7908;51.688;7.130;2023-01-28T14:46:05;1.60;99.90
15617;DHT22;7908;51.688;7.130;2023-01-28T14:48:42;1.50;99.90
15617;DHT22;7908;51.688;7.130;2023-01-28T14:51:36;1.60;99.90
15617;DHT22;7908;51.688;7.130;2023-01-28T14:57:21;1.60;99.90
15617;DHT22;7908;51.688;7.130;2023-01-28T14:59:57;1.60;99.90
15617;DHT22;7908;51.688;7.130;2023-01-28T15:02:29;1.60;99.90
15617;DHT22;7908;51.688;7.130;2023-01-28T15:05:09;1.50;99.90
15617;DHT22;7908;51.688;7.130;2023-01-28T15:07:43;1.50;99.90
15617;DHT22;7908;51.688;7.130;2023-01-28T15:10:16;1.60;99.90
15617;DHT22;7908;51.688;7.130;2023-01-28T15:12:49;1.60;99.90
15617;DHT22;7908;51.688;7.130;2023-01-28T15:15:29;1.50;99.90
15617;DHT22;7908;51.688;7.130;2023-01-28T15:18:01;1.50;99.90
15617;DHT22;7908;51.688;7.130;2023-01-28T15:20:32;1.50;99.90
15617;DHT22;7908;51.688;7.130;2023-01-28T15:23:02;1.50;99.90
15617;DHT22;7908;51.688;7.130;2023-01-28T15:25:34;1.40;99.90
15617;DHT22;7908;51.688;7.130;2023-01-28T15:28:14;1.40;99.90
15617;DHT22;7908;51.688;7.130;2023-01-28T15:30:46;1.40;99.90
15617;DHT22;7908;51.688;7.130;2023-01-28T15:33:16;1.40;99.90
15617;DHT22;7908;51.688;7.130;2023-01-28T15:35:46;1.30;99.90
15617;DHT22;7908;51.688;7.130;2023-01-28T15:38:16;1.20;99.90
15617;DHT22;7908;51.688;7.130;2023-01-28T15:40:48;1.20;99.90
15617;DHT22;7908;51.688;7.130;2023-01-28T15:43:20;1.20;99.90
15617;DHT22;7908;51.688;7.130;2023-01-28T15:45:54;1.20;99.90
15617;DHT22;7908;51.688;7.130;2023-01-28T15:48:25;1.10;99.90
15617;DHT22;7908;51.688;7.130;2023-01-28T15:51:01;1.10;99.90
15617;DHT22;7908;51.688;7.130;2023-01-28T15:53:33;1.10;99.90
15617;DHT22;7908;51.688;7.130;2023-01-28T15:56:08;1.00;99.90
15617;DHT22;7908;51.688;7.130;2023-01-28T15:58:38;1.00;99.90
15617;DHT22;7908;51.688;7.130;2023-01-28T16:01:15;0.90;99.90
15617;DHT22;7908;51.688;7.130;2023-01-28T16:04:02;0.90;99.90
15617;DHT22;7908;51.688;7.130;2023-01-28T16:06:39;0.80;99.90
15617;DHT22;7908;51.688;7.130;2023-01-28T16:09:21;0.70;99.90
15617;DHT22;7908;51.688;7.130;2023-01-28T16:11:59;0.60;99.90
15617;DHT22;7908;51.688;7.130;2023-01-28T16:14:30;0.60;99.90
15617;DHT22;7908;51.688;7.130;2023-01-28T16:17:01;0.50;99.90
15617;DHT22;7908;51.688;7.130;2023-01-28T16:19:35;0.50;99.90
15617;DHT22;7908;51.688;7.130;2023-01-28T16:22:06;0.30;99.90
15617;DHT22;7908;51.688;7.130;2023-01-28T16:24:35;0.30;99.90
15617;DHT22;7908;51.688;7.130;2023-01-28T16:27:16;0.20;99.90
15617;DHT22;7908;51.688;7.130;2023-01-28T16:29:47;0.20;99.90
15617;DHT22;7908;51.688;7.130;2023-01-28T16:32:29;0.10;99.90
15617;DHT22;7908;51.688;7.130;2023-01-28T16:35:16;0.10;99.90
15617;DHT22;7908;51.688;7.130;2023-01-28T16:37:46;0.00;99.90
15617;DHT22;7908;51.688;7.130;2023-01-28T16:40:17;-0.10;99.90
15617;DHT22;7908;51.688;7.130;2023-01-28T16:42:47;-0.10;99.90
15617;DHT22;7908;51.688;7.130;2023-01-28T16:45:18;-0.10;99.90
15617;DHT22;7908;51.688;7.130;2023-01-28T16:47:50;-0.10;99.90
15617;DHT22;7908;51.688;7.130;2023-01-28T16:50:20;-0.20;99.90
15617;DHT22;7908;51.688;7.130;2023-01-28T16:52:55;-0.10;99.90
15617;DHT22;7908;51.688;7.130;2023-01-28T16:55:25;-0.20;99.90
15617;DHT22;7908;51.688;7.130;2023-01-28T16:57:55;-0.30;99.90
15617;DHT22;7908;51.688;7.130;2023-01-28T17:00:26;-0.30;99.90
15617;DHT22;7908;51.688;7.130;2023-01-28T17:02:59;-0.30;99.90
15617;DHT22;7908;51.688;7.130;2023-01-28T17:05:28;-0.40;99.90